createdAt,value
2022-09-01T00:00:57.649Z,1.35
2022-09-01T00:04:03.346Z,1.55
2022-09-01T00:07:09.634Z,1.20
2022-09-01T00:10:14.804Z,1.10
2022-09-01T00:13:22.504Z,1.20
2022-09-01T00:16:27.550Z,1.33
2022-09-01T00:19:33.513Z,1.10
2022-09-01T00:22:38.434Z,1.55
2022-09-01T00:25:43.542Z,1.55
2022-09-01T00:28:51.258Z,1.13
2022-09-01T00:31:56.737Z,1.20
2022-09-01T00:35:01.866Z,1.70
2022-09-01T00:38:06.951Z,1.42
2022-09-01T00:41:13.006Z,1.30
2022-09-01T00:44:26.834Z,1.48
2022-09-01T00:47:35.888Z,1.23
2022-09-01T00:50:41.346Z,1.38
2022-09-01T00:53:47.793Z,1.58
2022-09-01T00:56:57.322Z,1.23
2022-09-01T01:00:12.200Z,1.20
2022-09-01T01:03:17.700Z,1.17
2022-09-01T01:06:30.795Z,1.40
2022-09-01T01:09:41.691Z,1.40
2022-09-01T01:12:47.192Z,1.48
2022-09-01T01:15:54.944Z,1.10
2022-09-01T01:19:02.807Z,1.10
2022-09-01T01:22:28.491Z,1.45
2022-09-01T01:25:39.594Z,0.98
2022-09-01T01:28:45.601Z,1.10
2022-09-01T01:31:53.362Z,1.30
2022-09-01T01:35:02.989Z,1.20
2022-09-01T01:38:10.126Z,1.42
2022-09-01T01:41:19.917Z,1.15
2022-09-01T01:44:28.451Z,1.35
2022-09-01T01:47:37.374Z,1.17
2022-09-01T01:50:43.078Z,1.00
2022-09-01T01:53:52.839Z,1.42
2022-09-01T01:57:01.000Z,1.40
2022-09-01T02:00:07.774Z,1.40
2022-09-01T02:03:19.138Z,1.23
2022-09-01T02:06:25.406Z,1.20
2022-09-01T02:09:34.143Z,1.20
2022-09-01T02:12:43.301Z,1.45
2022-09-01T02:15:50.500Z,1.20
2022-09-01T02:18:55.490Z,1.08
2022-09-01T02:22:00.446Z,1.42
2022-09-01T02:25:05.922Z,1.50
2022-09-01T02:28:16.157Z,1.20
2022-09-01T02:31:23.129Z,1.20
2022-09-01T02:34:29.562Z,1.13
2022-09-01T02:37:34.571Z,1.73
2022-09-01T02:40:40.485Z,1.20
2022-09-01T02:43:48.705Z,1.10
2022-09-01T02:46:54.265Z,1.48
2022-09-01T02:50:01.990Z,1.15
2022-09-01T02:53:10.119Z,1.10
2022-09-01T02:56:18.286Z,1.02
2022-09-01T02:59:28.853Z,1.50
2022-09-01T03:02:37.174Z,1.40
2022-09-01T03:05:43.152Z,1.02
2022-09-01T03:08:48.576Z,1.40
2022-09-01T03:11:55.981Z,1.35
2022-09-01T03:15:06.525Z,1.30
2022-09-01T03:18:16.404Z,1.30
2022-09-01T03:21:21.758Z,0.95
2022-09-01T03:24:26.679Z,1.60
2022-09-01T03:27:31.629Z,1.52
2022-09-01T03:30:41.327Z,1.85
2022-09-01T03:33:46.268Z,1.48
2022-09-01T03:36:58.910Z,1.20
2022-09-01T03:40:07.064Z,1.58
2022-09-01T03:43:14.412Z,1.20
2022-09-01T03:46:24.431Z,1.15
2022-09-01T03:49:30.331Z,1.55
2022-09-01T03:52:37.054Z,1.33
2022-09-01T03:55:42.193Z,1.40
2022-09-01T03:58:47.803Z,1.40
2022-09-01T04:01:58.025Z,1.50
2022-09-01T04:05:07.712Z,1.40
2022-09-01T04:08:14.580Z,1.42
2022-09-01T04:11:24.374Z,1.35
2022-09-01T04:14:30.811Z,1.23
2022-09-01T04:17:51.098Z,1.52
2022-09-01T04:20:58.267Z,1.23
2022-09-01T04:24:05.669Z,1.30
2022-09-01T04:27:11.725Z,1.20
2022-09-01T04:30:16.901Z,1.40
2022-09-01T04:33:34.917Z,1.77
2022-09-01T04:36:41.569Z,1.40
2022-09-01T04:39:55.684Z,1.27
2022-09-01T04:43:01.887Z,1.30
2022-09-01T04:46:06.982Z,1.38
2022-09-01T04:49:19.482Z,1.30
2022-09-01T04:52:25.246Z,1.65
2022-09-01T04:55:31.030Z,1.23
2022-09-01T04:58:37.054Z,1.42
2022-09-01T05:01:46.532Z,1.33
2022-09-01T05:04:57.810Z,1.50
2022-09-01T05:08:02.782Z,2.08
2022-09-01T05:11:09.363Z,1.58
2022-09-01T05:14:18.541Z,1.45
2022-09-01T05:17:26.100Z,1.70
2022-09-01T05:20:35.297Z,1.23
2022-09-01T05:23:40.700Z,1.35
2022-09-01T05:26:47.546Z,2.08
2022-09-01T05:29:53.274Z,1.45
2022-09-01T05:32:58.216Z,1.70
2022-09-01T05:36:08.401Z,1.40
2022-09-01T05:39:14.889Z,1.50
2022-09-01T05:42:19.906Z,1.35
2022-09-01T05:45:26.656Z,1.52
2022-09-01T05:48:35.823Z,1.52
2022-09-01T05:51:45.978Z,1.70
2022-09-01T05:55:00.182Z,1.30
2022-09-01T05:58:06.433Z,2.33
2022-09-01T06:01:13.065Z,1.77
2022-09-01T06:04:18.155Z,1.40
2022-09-01T06:07:28.653Z,1.48
2022-09-01T06:10:37.494Z,1.58
2022-09-01T06:13:42.946Z,1.77
2022-09-01T06:16:48.583Z,1.88
2022-09-01T06:19:56.327Z,2.00
2022-09-01T06:23:04.099Z,1.65
2022-09-01T06:26:09.950Z,1.65
2022-09-01T06:29:15.785Z,1.98
2022-09-01T06:32:28.895Z,1.60
2022-09-01T06:35:36.269Z,1.45
2022-09-01T06:38:43.932Z,1.70
2022-09-01T06:41:53.319Z,2.00
2022-09-01T06:45:02.646Z,1.70
2022-09-01T06:48:07.881Z,1.65
2022-09-01T06:51:17.250Z,1.80
2022-09-01T06:54:27.377Z,1.70
2022-09-01T07:00:57.421Z,1.80
2022-09-01T07:04:03.986Z,1.55
2022-09-01T07:15:33.989Z,1.45
2022-09-01T07:18:00.498Z,1.50
2022-09-01T07:21:36.642Z,1.20
2022-09-01T07:24:35.899Z,1.42
2022-09-01T07:28:20.416Z,2.08
2022-09-01T07:31:50.576Z,1.42
2022-09-01T07:34:57.462Z,1.77
2022-09-01T07:45:29.137Z,1.88
2022-09-01T07:52:07.429Z,1.63
2022-09-01T07:55:16.815Z,1.60
2022-09-01T07:58:23.305Z,1.95
2022-09-01T08:01:34.663Z,1.50
2022-09-01T08:04:41.181Z,1.38
2022-09-01T08:07:52.322Z,1.40
2022-09-01T08:11:06.589Z,1.80
2022-09-01T08:14:11.739Z,1.50
2022-09-01T08:17:51.198Z,1.75
2022-09-01T08:20:49.401Z,1.52
2022-09-01T08:24:10.514Z,1.20
2022-09-01T08:27:15.534Z,1.20
2022-09-01T08:30:21.226Z,1.40
2022-09-01T08:33:31.323Z,1.33
2022-09-01T08:36:36.515Z,1.10
2022-09-01T08:39:42.573Z,1.05
2022-09-01T08:42:59.542Z,1.13
2022-09-01T08:46:12.301Z,1.20
2022-09-01T08:49:26.272Z,0.85
2022-09-01T08:52:47.851Z,0.85
2022-09-01T08:55:58.630Z,1.02
2022-09-01T08:59:04.002Z,1.65
2022-09-01T09:02:45.608Z,1.10
2022-09-01T09:06:07.888Z,0.90
2022-09-01T09:09:13.400Z,1.60
2022-09-01T09:12:34.318Z,1.10
2022-09-01T09:15:46.444Z,0.88
2022-09-01T09:18:55.670Z,0.90
2022-09-01T09:22:07.123Z,1.35
2022-09-01T09:25:17.480Z,1.13
2022-09-01T09:28:25.770Z,1.10
2022-09-01T09:31:36.561Z,0.90
2022-09-01T09:34:43.938Z,0.77
2022-09-01T09:37:51.676Z,0.60
2022-09-01T09:41:18.781Z,0.75
2022-09-01T09:44:29.535Z,0.98
2022-09-01T09:47:43.961Z,0.60
2022-09-01T09:50:49.390Z,0.55
2022-09-01T09:54:13.928Z,0.68
2022-09-01T09:57:22.137Z,0.77
2022-09-01T10:00:29.842Z,0.77
2022-09-01T10:03:46.170Z,0.80
2022-09-01T10:06:51.754Z,0.90
2022-09-01T10:10:01.303Z,0.65
2022-09-01T10:13:06.968Z,1.08
2022-09-01T10:16:22.307Z,1.30
2022-09-01T10:19:35.562Z,0.68
2022-09-01T10:22:42.177Z,0.70
2022-09-01T10:25:54.281Z,0.63
2022-09-01T10:29:04.135Z,0.90
2022-09-01T10:32:31.850Z,1.15
2022-09-01T10:35:42.546Z,0.75
2022-09-01T10:38:53.713Z,0.82
2022-09-01T10:42:19.842Z,0.55
2022-09-01T10:45:36.621Z,0.60
2022-09-01T10:48:48.829Z,0.80
2022-09-01T10:52:03.188Z,0.50
2022-09-01T10:55:24.025Z,0.70
2022-09-01T11:06:12.289Z,0.90
2022-09-01T11:09:26.279Z,0.60
2022-09-01T11:12:49.339Z,0.90
2022-09-01T11:16:00.549Z,0.60
2022-09-01T11:19:34.545Z,0.80
2022-09-01T11:22:42.887Z,1.17
2022-09-01T11:26:18.978Z,0.70
2022-09-01T11:29:55.787Z,0.68
2022-09-01T11:33:15.670Z,0.80
2022-09-01T11:36:31.422Z,1.00
2022-09-01T11:39:43.923Z,0.63
2022-09-01T11:42:49.101Z,0.75
2022-09-01T11:46:04.403Z,0.90
2022-09-01T11:49:34.887Z,0.70
2022-09-01T11:52:41.969Z,1.00
2022-09-01T11:55:48.969Z,0.80
2022-09-01T11:58:54.252Z,0.50
2022-09-01T12:02:01.037Z,0.85
2022-09-01T12:05:30.826Z,0.50
2022-09-01T12:08:39.081Z,1.13
2022-09-01T12:11:44.937Z,0.75
2022-09-01T12:15:05.628Z,0.77
2022-09-01T12:18:22.433Z,0.80
2022-09-01T12:21:33.568Z,0.70
2022-09-01T12:24:39.010Z,0.93
2022-09-01T12:27:44.025Z,0.70
2022-09-01T12:30:50.057Z,0.75
2022-09-01T12:33:57.355Z,0.70
2022-09-01T12:37:23.046Z,0.70
2022-09-01T12:40:34.491Z,0.73
2022-09-01T12:43:42.048Z,0.93
2022-09-01T12:46:48.473Z,0.70
2022-09-01T12:49:55.690Z,0.70
2022-09-01T12:53:05.839Z,0.60
2022-09-01T12:56:24.621Z,0.50
2022-09-01T12:59:29.950Z,0.77
2022-09-01T13:02:44.700Z,0.73
2022-09-01T13:05:53.101Z,0.88
2022-09-01T13:09:00.609Z,0.90
2022-09-01T13:12:29.554Z,0.73
2022-09-01T13:15:35.146Z,0.75
2022-09-01T13:22:05.108Z,0.77
2022-09-01T13:25:13.474Z,0.57
2022-09-01T13:28:20.611Z,0.63
2022-09-01T13:31:29.346Z,0.90
2022-09-01T13:34:35.521Z,0.80
2022-09-01T13:37:43.467Z,0.70
2022-09-01T13:40:53.689Z,0.88
2022-09-01T13:43:58.666Z,0.70
2022-09-01T13:51:14.536Z,0.60
2022-09-01T13:53:54.825Z,0.60
2022-09-01T13:57:02.475Z,0.80
2022-09-01T14:00:11.065Z,0.70
2022-09-01T14:03:18.922Z,0.50
2022-09-01T14:06:24.168Z,0.55
2022-09-01T14:09:29.242Z,0.90
2022-09-01T14:12:37.565Z,0.70
2022-09-01T14:15:44.197Z,0.75
2022-09-01T14:18:49.164Z,0.70
2022-09-01T14:21:54.140Z,0.70
2022-09-01T14:24:59.096Z,0.60
2022-09-01T14:28:07.487Z,0.52
2022-09-01T14:31:13.564Z,1.08
2022-09-01T14:34:19.190Z,0.60
2022-09-01T14:37:24.426Z,0.60
2022-09-01T14:40:29.608Z,0.60
2022-09-01T14:43:37.188Z,0.60
2022-09-01T14:46:42.243Z,0.70
2022-09-01T14:49:47.634Z,0.70
2022-09-01T14:52:53.557Z,0.57
2022-09-01T14:55:58.529Z,1.00
2022-09-01T14:59:06.323Z,0.50
2022-09-01T15:02:12.065Z,0.70
2022-09-01T15:05:17.785Z,0.70
2022-09-01T15:08:23.989Z,0.82
2022-09-01T15:11:29.058Z,0.88
2022-09-01T15:14:37.852Z,0.63
2022-09-01T15:17:44.639Z,0.73
2022-09-01T15:20:51.769Z,0.65
2022-09-01T15:23:57.626Z,0.60
2022-09-01T15:27:02.591Z,0.80
2022-09-01T15:30:14.605Z,0.80
2022-09-01T15:33:19.674Z,0.80
2022-09-01T15:36:28.542Z,0.95
2022-09-01T15:39:38.135Z,1.00
2022-09-01T15:42:43.592Z,1.13
2022-09-01T15:45:51.758Z,0.80
2022-09-01T15:48:58.625Z,1.08
2022-09-01T15:52:03.545Z,0.50
2022-09-01T15:55:09.304Z,0.60
2022-09-01T15:58:16.563Z,0.73
2022-09-01T16:01:24.283Z,0.60
2022-09-01T16:04:29.286Z,0.57
2022-09-01T16:07:34.326Z,1.08
2022-09-01T16:10:42.287Z,0.75
2022-09-01T16:13:47.383Z,0.60
2022-09-01T16:17:03.375Z,0.68
2022-09-01T16:20:13.623Z,0.40
2022-09-01T16:23:20.770Z,0.73
2022-09-01T16:26:26.502Z,0.80
2022-09-01T16:29:40.948Z,0.52
2022-09-01T16:32:51.995Z,0.60
2022-09-01T16:36:17.758Z,0.80
2022-09-01T16:39:30.407Z,0.70
2022-09-01T16:42:47.074Z,0.52
2022-09-01T16:46:02.225Z,0.70
2022-09-01T16:49:18.175Z,0.80
2022-09-01T16:52:26.678Z,0.50
2022-09-01T16:55:41.488Z,0.70
2022-09-01T16:58:52.327Z,0.73
2022-09-01T17:02:07.322Z,1.10
2022-09-01T17:05:24.141Z,1.10
2022-09-01T17:08:34.386Z,0.70
2022-09-01T17:11:49.119Z,0.73
2022-09-01T17:14:59.715Z,0.57
2022-09-01T17:18:22.859Z,0.65
2022-09-01T17:21:36.977Z,0.40
2022-09-01T17:24:44.968Z,0.60
2022-09-01T17:27:58.148Z,0.77
2022-09-01T17:31:14.447Z,0.70
2022-09-01T17:34:30.780Z,0.60
2022-09-01T17:37:46.962Z,0.52
2022-09-01T17:41:15.624Z,0.68
2022-09-01T17:44:30.828Z,0.40
2022-09-01T17:47:52.782Z,0.90
2022-09-01T17:51:04.986Z,0.80
2022-09-01T17:54:21.364Z,0.40
2022-09-01T17:57:32.933Z,0.60
2022-09-01T18:00:44.569Z,0.57
2022-09-01T18:04:05.993Z,0.43
2022-09-01T18:07:23.318Z,0.73
2022-09-01T18:10:35.109Z,0.70
2022-09-01T18:13:53.808Z,0.95
2022-09-01T18:17:05.348Z,0.68
2022-09-01T18:20:12.845Z,0.32
2022-09-01T18:23:20.257Z,2.55
2022-09-01T18:26:33.008Z,0.65
2022-09-01T18:29:38.366Z,0.80
2022-09-01T18:32:45.596Z,0.95
2022-09-01T18:36:00.579Z,0.65
2022-09-01T18:39:10.312Z,1.00
2022-09-01T18:42:26.385Z,0.85
2022-09-01T18:45:40.354Z,0.93
2022-09-01T18:48:56.927Z,0.47
2022-09-01T18:52:14.949Z,0.60
2022-09-01T18:55:28.054Z,0.85
2022-09-01T18:58:47.651Z,0.80
2022-09-01T19:01:59.511Z,0.95
2022-09-01T19:05:11.615Z,1.35
2022-09-01T19:08:26.473Z,1.15
2022-09-01T19:11:42.363Z,0.93
2022-09-01T19:15:00.342Z,1.13
2022-09-01T19:18:19.448Z,1.08
2022-09-01T19:21:26.680Z,1.05
2022-09-01T19:24:38.267Z,0.80
2022-09-01T19:27:43.299Z,0.73
2022-09-01T19:30:53.332Z,0.70
2022-09-01T19:34:01.850Z,0.70
2022-09-01T19:37:07.490Z,0.77
2022-09-01T19:40:13.474Z,0.55
2022-09-01T19:43:23.973Z,0.88
2022-09-01T19:46:37.247Z,0.60
2022-09-01T19:49:46.495Z,0.90
2022-09-01T19:53:00.629Z,0.88
2022-09-01T19:56:10.356Z,0.63
2022-09-01T19:59:25.283Z,1.40
2022-09-01T20:02:37.684Z,0.80
2022-09-01T20:05:45.033Z,0.75
2022-09-01T20:08:59.901Z,0.82
2022-09-01T20:12:17.118Z,0.60
2022-09-01T20:15:26.587Z,0.75
2022-09-01T20:18:40.485Z,0.73
2022-09-01T20:21:49.111Z,0.60
2022-09-01T20:24:58.322Z,0.60
2022-09-01T20:28:09.907Z,0.70
2022-09-01T20:31:23.037Z,0.60
2022-09-01T20:34:37.843Z,0.70
2022-09-01T20:37:48.094Z,0.70
2022-09-01T20:40:50.546Z,0.50
2022-09-01T20:43:59.146Z,0.60
2022-09-01T20:47:05.125Z,0.95
2022-09-01T20:50:15.538Z,0.73
2022-09-01T20:53:49.799Z,0.52
2022-09-01T20:57:03.342Z,0.52
2022-09-01T21:00:12.073Z,1.27
2022-09-01T21:03:32.561Z,0.88
2022-09-01T21:06:56.190Z,0.65
2022-09-01T21:10:09.479Z,1.40
2022-09-01T21:13:26.919Z,0.70
2022-09-01T21:16:40.204Z,0.57
2022-09-01T21:19:59.190Z,0.60
2022-09-01T21:23:07.034Z,0.70
2022-09-01T21:26:12.579Z,1.05
2022-09-01T21:29:32.343Z,0.77
2022-09-01T21:32:37.916Z,0.95
2022-09-01T21:35:42.899Z,0.70
2022-09-01T21:38:50.626Z,0.60
2022-09-01T21:41:55.922Z,0.80
2022-09-01T21:45:01.459Z,0.88
2022-09-01T21:48:08.821Z,0.70
2022-09-01T21:51:13.721Z,0.95
2022-09-01T21:54:21.486Z,0.80
2022-09-01T21:57:26.416Z,0.50
2022-09-01T22:00:33.586Z,0.68
2022-09-01T22:03:38.533Z,1.35
2022-09-01T22:06:43.774Z,1.00
2022-09-01T22:09:51.477Z,0.75
2022-09-01T22:12:56.937Z,0.73
2022-09-01T22:16:02.358Z,1.00
2022-09-01T22:19:08.819Z,0.93
2022-09-01T22:22:13.765Z,0.85
2022-09-01T22:25:24.155Z,0.63
2022-09-01T22:28:29.375Z,0.75
2022-09-01T22:31:36.383Z,0.75
2022-09-01T22:34:41.646Z,0.60
2022-09-01T22:37:49.320Z,0.70
2022-09-01T22:41:00.268Z,0.90
2022-09-01T22:44:06.513Z,0.70
2022-09-01T22:47:11.949Z,0.95
2022-09-01T22:50:17.039Z,0.93
2022-09-01T22:53:24.298Z,0.73
2022-09-01T22:56:33.937Z,0.90
2022-09-01T22:59:41.825Z,1.00
2022-09-01T23:02:47.463Z,0.68
2022-09-01T23:06:03.760Z,0.95
2022-09-01T23:09:08.942Z,0.95
2022-09-01T23:12:16.455Z,0.70
2022-09-01T23:15:21.567Z,0.68
2022-09-01T23:18:26.938Z,0.68
2022-09-01T23:21:34.459Z,1.00
2022-09-01T23:24:39.394Z,0.68
2022-09-01T23:27:47.169Z,0.60
2022-09-01T23:30:53.410Z,0.98
2022-09-01T23:33:59.063Z,0.80
2022-09-01T23:37:04.214Z,0.65
2022-09-01T23:40:10.775Z,0.65
2022-09-01T23:43:20.377Z,0.88
2022-09-01T23:46:28.030Z,0.57
2022-09-01T23:49:32.966Z,0.80
2022-09-01T23:52:37.941Z,0.85
2022-09-01T23:55:45.318Z,0.90
2022-09-01T23:58:53.321Z,1.30
